createdAt,value
2022-10-29T00:02:14.461Z,6.13
2022-10-29T00:04:40.807Z,5.80
2022-10-29T00:07:07.146Z,4.90
2022-10-29T00:09:33.593Z,5.57
2022-10-29T00:11:59.943Z,5.00
2022-10-29T00:14:26.316Z,6.23
2022-10-29T00:16:52.697Z,6.57
2022-10-29T00:19:19.028Z,6.27
2022-10-29T00:21:45.413Z,5.63
2022-10-29T00:24:11.835Z,5.47
2022-10-29T00:26:38.197Z,6.83
2022-10-29T00:29:04.588Z,6.07
2022-10-29T00:31:31.438Z,5.30
2022-10-29T00:33:57.831Z,5.97
2022-10-29T00:36:26.297Z,5.83
2022-10-29T00:38:52.665Z,5.90
2022-10-29T00:41:20.703Z,5.77
2022-10-29T00:43:48.578Z,6.20
2022-10-29T00:46:24.672Z,6.53
2022-10-29T00:48:52.099Z,5.37
2022-10-29T00:51:19.041Z,5.73
2022-10-29T00:53:47.264Z,5.43
2022-10-29T00:56:13.974Z,6.13
2022-10-29T00:58:40.709Z,6.07
2022-10-29T01:01:07.235Z,5.77
2022-10-29T01:03:33.572Z,5.70
2022-10-29T01:06:01.022Z,5.63
2022-10-29T01:08:27.464Z,5.77
2022-10-29T01:11:11.988Z,5.97
2022-10-29T01:13:41.064Z,6.00
2022-10-29T01:16:19.431Z,5.70
2022-10-29T01:18:54.450Z,6.17
2022-10-29T01:21:37.611Z,6.20
2022-10-29T01:24:22.742Z,6.80
2022-10-29T01:26:55.163Z,6.07
2022-10-29T01:29:40.530Z,6.70
2022-10-29T01:32:36.268Z,5.47
2022-10-29T01:35:02.620Z,5.00
2022-10-29T01:37:47.869Z,6.57
2022-10-29T01:40:21.812Z,5.60
2022-10-29T01:42:54.411Z,5.50
2022-10-29T01:45:29.783Z,6.00
2022-10-29T01:48:10.457Z,5.80
2022-10-29T01:50:38.036Z,5.97
2022-10-29T01:53:04.889Z,6.07
2022-10-29T01:55:35.229Z,6.43
2022-10-29T01:58:05.444Z,5.87
2022-10-29T02:00:48.266Z,5.37
2022-10-29T02:03:27.113Z,6.60
2022-10-29T02:06:16.568Z,6.17
2022-10-29T02:08:51.636Z,7.47
2022-10-29T02:11:21.619Z,6.63
2022-10-29T02:13:55.883Z,5.73
2022-10-29T02:16:22.996Z,6.47
2022-10-29T02:18:49.685Z,6.00
2022-10-29T02:21:16.771Z,7.77
2022-10-29T02:23:43.285Z,6.27
2022-10-29T02:26:09.950Z,6.47
2022-10-29T02:28:36.349Z,7.50
2022-10-29T02:31:02.909Z,5.20
2022-10-29T02:33:29.387Z,6.33
2022-10-29T02:35:55.732Z,18.17
2022-10-29T02:38:22.080Z,14.67
2022-10-29T02:40:48.405Z,7.37
2022-10-29T02:43:14.834Z,5.87
2022-10-29T02:45:41.313Z,6.93
2022-10-29T02:48:07.636Z,6.77
2022-10-29T02:50:33.984Z,6.80
2022-10-29T02:53:00.341Z,7.57
2022-10-29T02:55:26.654Z,6.47
2022-10-29T02:57:53.236Z,7.03
2022-10-29T03:00:19.825Z,7.53
2022-10-29T03:02:46.248Z,7.40
2022-10-29T03:05:12.607Z,6.90
2022-10-29T03:07:39.010Z,7.57
2022-10-29T03:10:06.222Z,8.33
2022-10-29T03:12:32.649Z,6.70
2022-10-29T03:14:59.001Z,6.30
2022-10-29T03:17:25.607Z,7.87
2022-10-29T03:19:51.932Z,7.73
2022-10-29T03:22:18.280Z,6.57
2022-10-29T03:24:44.620Z,7.47
2022-10-29T03:27:11.124Z,8.17
2022-10-29T03:29:37.477Z,6.80
2022-10-29T03:32:03.910Z,5.63
2022-10-29T03:34:30.560Z,7.37
2022-10-29T03:36:56.933Z,8.17
2022-10-29T03:39:23.274Z,7.80
2022-10-29T03:41:49.632Z,9.40
2022-10-29T03:44:16.031Z,7.20
2022-10-29T03:46:42.434Z,8.20
2022-10-29T03:49:08.774Z,7.13
2022-10-29T03:51:35.617Z,8.10
2022-10-29T03:54:02.145Z,8.33
2022-10-29T03:56:28.490Z,8.20
2022-10-29T03:58:54.930Z,8.00
2022-10-29T04:01:21.614Z,7.47
2022-10-29T04:03:48.055Z,8.13
2022-10-29T04:06:15.362Z,8.10
2022-10-29T04:08:42.059Z,13.80
2022-10-29T04:11:12.033Z,19.37
2022-10-29T04:13:38.385Z,7.87
2022-10-29T04:16:04.960Z,7.47
2022-10-29T04:18:31.402Z,8.10
2022-10-29T04:29:28.291Z,8.20
2022-10-29T04:31:54.631Z,7.97
2022-10-29T04:34:20.966Z,6.33
2022-10-29T04:36:47.400Z,7.00
2022-10-29T04:39:13.785Z,7.23
2022-10-29T04:41:40.137Z,7.37
2022-10-29T04:44:06.505Z,6.87
2022-10-29T04:46:32.854Z,7.67
2022-10-29T04:48:59.325Z,8.50
2022-10-29T04:51:26.412Z,9.63
2022-10-29T04:53:52.775Z,8.40
2022-10-29T04:56:19.190Z,9.00
2022-10-29T04:58:45.512Z,8.20
2022-10-29T05:01:12.087Z,7.60
2022-10-29T05:03:38.572Z,8.07
2022-10-29T05:06:05.594Z,8.37
2022-10-29T05:08:32.413Z,8.13
2022-10-29T05:11:01.243Z,7.63
2022-10-29T05:13:27.555Z,7.43
2022-10-29T05:15:53.909Z,7.87
2022-10-29T05:18:20.365Z,9.43
2022-10-29T05:20:46.719Z,8.30
2022-10-29T05:23:13.098Z,8.50
2022-10-29T05:25:40.465Z,8.10
2022-10-29T05:28:11.794Z,9.17
2022-10-29T05:30:38.446Z,8.87
2022-10-29T05:33:08.254Z,9.07
2022-10-29T05:35:35.098Z,8.53
2022-10-29T05:38:01.972Z,9.00
2022-10-29T05:40:28.673Z,9.57
2022-10-29T05:42:55.052Z,8.30
2022-10-29T05:45:21.627Z,10.17
2022-10-29T05:47:48.115Z,9.23
2022-10-29T05:50:14.518Z,8.37
2022-10-29T05:52:40.885Z,9.93
2022-10-29T05:55:07.694Z,9.90
2022-10-29T05:57:34.031Z,10.40
2022-10-29T06:00:00.410Z,10.53
2022-10-29T06:02:26.955Z,10.00
2022-10-29T06:04:53.338Z,9.97
2022-10-29T06:07:19.716Z,9.77
2022-10-29T06:09:46.057Z,9.03
2022-10-29T06:12:12.393Z,8.90
2022-10-29T06:14:38.736Z,10.13
2022-10-29T06:17:05.088Z,8.83
2022-10-29T06:19:31.549Z,9.07
2022-10-29T06:22:00.416Z,9.27
2022-10-29T06:24:27.190Z,8.23
2022-10-29T06:26:54.155Z,10.17
2022-10-29T06:29:20.532Z,8.87
2022-10-29T06:31:46.971Z,9.00
2022-10-29T06:34:14.724Z,8.87
2022-10-29T06:36:41.163Z,8.80
2022-10-29T06:39:07.532Z,8.63
2022-10-29T06:41:33.872Z,9.03
2022-10-29T06:44:00.277Z,8.50
2022-10-29T06:46:26.625Z,8.73
2022-10-29T06:48:52.981Z,8.17
2022-10-29T06:51:19.495Z,7.73
2022-10-29T06:53:45.903Z,8.03
2022-10-29T06:56:12.244Z,10.20
2022-10-29T06:58:38.585Z,9.60
2022-10-29T07:01:05.250Z,9.00
2022-10-29T07:03:31.656Z,8.13
2022-10-29T07:05:58.997Z,8.50
2022-10-29T07:08:25.764Z,9.50
2022-10-29T07:10:52.718Z,9.87
2022-10-29T07:13:19.254Z,10.53
2022-10-29T07:15:45.636Z,9.93
2022-10-29T07:18:12.125Z,10.53
2022-10-29T07:20:43.023Z,10.50
2022-10-29T07:23:09.978Z,9.30
2022-10-29T07:25:37.181Z,10.07
2022-10-29T07:28:04.852Z,9.17
2022-10-29T07:30:31.336Z,10.20
2022-10-29T07:32:57.660Z,14.70
2022-10-29T07:35:24.075Z,10.97
2022-10-29T07:37:50.414Z,14.53
2022-10-29T07:40:17.016Z,13.00
2022-10-29T07:42:43.385Z,13.93
2022-10-29T07:45:10.025Z,14.20
2022-10-29T07:47:36.743Z,13.20
2022-10-29T07:50:03.669Z,16.93
2022-10-29T07:52:30.032Z,18.33
2022-10-29T07:54:56.444Z,18.40
2022-10-29T07:57:22.800Z,22.30
2022-10-29T07:59:50.295Z,22.03
2022-10-29T08:02:16.779Z,21.53
2022-10-29T08:04:43.176Z,22.30
2022-10-29T08:07:09.515Z,22.43
2022-10-29T08:09:35.868Z,20.30
2022-10-29T08:12:02.196Z,21.73
2022-10-29T08:14:28.555Z,21.40
2022-10-29T08:16:54.928Z,19.97
2022-10-29T08:19:21.597Z,19.10
2022-10-29T08:21:47.963Z,18.60
2022-10-29T08:24:14.388Z,18.07
2022-10-29T08:26:40.763Z,18.93
2022-10-29T08:29:07.153Z,17.63
2022-10-29T08:31:33.691Z,17.73
2022-10-29T08:34:00.121Z,19.73
2022-10-29T08:36:26.471Z,19.30
2022-10-29T08:38:52.870Z,20.10
2022-10-29T08:41:19.204Z,18.63
2022-10-29T08:46:50.510Z,16.77
2022-10-29T08:49:21.674Z,21.43
2022-10-29T08:51:51.955Z,19.23
2022-10-29T08:54:31.180Z,22.40
2022-10-29T08:56:59.255Z,20.37
2022-10-29T08:59:28.185Z,17.80
2022-10-29T09:01:54.585Z,17.67
2022-10-29T09:04:31.597Z,17.13
2022-10-29T09:07:08.711Z,17.30
2022-10-29T09:09:38.865Z,16.70
2022-10-29T09:12:11.165Z,16.43
2022-10-29T09:14:40.689Z,16.50
2022-10-29T09:17:15.782Z,17.60
2022-10-29T09:20:05.293Z,17.40
2022-10-29T09:22:47.546Z,17.87
2022-10-29T09:25:29.799Z,18.43
2022-10-29T09:28:02.720Z,17.90
2022-10-29T09:30:30.773Z,18.20
2022-10-29T09:33:04.986Z,17.27
2022-10-29T09:35:34.401Z,17.97
2022-10-29T09:38:02.334Z,16.47
2022-10-29T09:40:33.165Z,17.00
2022-10-29T09:43:01.476Z,17.03
2022-10-29T09:45:35.630Z,15.17
2022-10-29T09:48:06.393Z,17.23
2022-10-29T09:50:41.650Z,15.60
2022-10-29T09:53:08.630Z,16.80
2022-10-29T09:55:37.792Z,17.07
2022-10-29T09:58:05.536Z,17.97
2022-10-29T10:00:32.484Z,17.33
2022-10-29T10:03:10.843Z,17.93
2022-10-29T10:05:55.584Z,20.10
2022-10-29T10:08:21.953Z,19.83
2022-10-29T10:11:00.564Z,19.00
2022-10-29T10:13:31.287Z,17.70
2022-10-29T10:16:01.892Z,18.47
2022-10-29T10:18:39.684Z,17.93
2022-10-29T10:21:10.488Z,16.93
2022-10-29T10:23:47.397Z,16.67
2022-10-29T10:26:32.254Z,16.47
2022-10-29T10:29:12.358Z,17.40
2022-10-29T10:31:39.273Z,17.30
2022-10-29T10:34:13.065Z,15.77
2022-10-29T10:36:41.813Z,43.13
2022-10-29T10:39:16.013Z,20.60
2022-10-29T10:41:42.680Z,17.33
2022-10-29T10:44:12.617Z,15.93
2022-10-29T10:46:40.659Z,17.00
2022-10-29T10:49:12.796Z,16.20
2022-10-29T10:51:42.691Z,16.60
2022-10-29T10:54:27.922Z,15.07
2022-10-29T10:57:03.189Z,15.63
2022-10-29T10:59:41.864Z,14.87
2022-10-29T11:02:15.159Z,15.60
2022-10-29T11:04:43.361Z,14.70
2022-10-29T11:07:12.508Z,13.57
2022-10-29T11:09:46.738Z,12.67
2022-10-29T11:12:24.360Z,12.03
2022-10-29T11:14:53.910Z,12.17
2022-10-29T11:17:20.406Z,12.20
2022-10-29T11:19:49.656Z,12.40
2022-10-29T11:22:18.830Z,11.63
2022-10-29T11:24:50.483Z,12.50
2022-10-29T11:27:35.144Z,12.03
2022-10-29T11:30:03.909Z,13.10
2022-10-29T11:32:34.857Z,10.50
2022-10-29T11:35:04.391Z,10.13
2022-10-29T11:37:49.637Z,10.57
2022-10-29T11:40:37.830Z,10.57
2022-10-29T11:43:09.725Z,9.20
2022-10-29T11:45:49.642Z,10.70
2022-10-29T11:50:54.849Z,10.57
2022-10-29T11:53:41.504Z,10.40
2022-10-29T11:56:22.735Z,11.07
2022-10-29T11:58:58.325Z,11.13
2022-10-29T12:01:27.473Z,11.00
2022-10-29T12:04:01.099Z,10.97
2022-10-29T12:06:34.977Z,10.20
2022-10-29T12:09:20.187Z,10.80
2022-10-29T12:11:54.060Z,9.67
2022-10-29T12:14:20.398Z,10.87
2022-10-29T12:16:58.435Z,9.43
2022-10-29T12:19:30.929Z,10.23
2022-10-29T12:22:04.094Z,10.07
2022-10-29T12:24:43.117Z,9.63
2022-10-29T12:27:14.554Z,8.43
2022-10-29T12:29:47.868Z,8.30
2022-10-29T12:32:18.577Z,9.13
2022-10-29T12:34:48.074Z,8.70
2022-10-29T12:37:33.213Z,8.63
2022-10-29T12:40:02.696Z,8.23
2022-10-29T12:42:32.063Z,8.37
2022-10-29T12:45:20.131Z,7.40
2022-10-29T12:47:52.480Z,7.43
2022-10-29T12:50:54.521Z,8.10
2022-10-29T12:53:39.326Z,8.77
2022-10-29T12:56:07.057Z,7.33
2022-10-29T12:58:42.481Z,7.03
2022-10-29T13:02:09.835Z,7.33
2022-10-29T13:04:25.824Z,7.17
2022-10-29T13:07:05.670Z,6.17
2022-10-29T13:09:36.109Z,7.07
2022-10-29T13:12:06.507Z,12.30
2022-10-29T13:14:38.960Z,9.77
2022-10-29T13:17:17.685Z,11.00
2022-10-29T13:19:47.258Z,6.97
2022-10-29T13:22:16.486Z,6.83
2022-10-29T13:24:43.095Z,6.70
2022-10-29T13:27:21.670Z,5.97
2022-10-29T13:29:48.056Z,6.23
2022-10-29T13:32:30.572Z,5.93
2022-10-29T13:34:58.328Z,6.70
2022-10-29T13:37:54.242Z,8.17
2022-10-29T13:40:23.736Z,6.37
2022-10-29T13:42:57.288Z,6.90
2022-10-29T13:45:24.038Z,6.90
2022-10-29T13:47:50.406Z,13.60
2022-10-29T13:50:20.509Z,19.37
2022-10-29T13:52:50.651Z,19.67
2022-10-29T13:55:17.505Z,8.83
2022-10-29T13:57:59.482Z,6.57
2022-10-29T14:00:26.371Z,6.70
2022-10-29T14:02:56.113Z,6.83
2022-10-29T14:05:25.635Z,6.43
2022-10-29T14:08:03.774Z,6.70
2022-10-29T14:10:43.808Z,6.60
2022-10-29T14:13:19.136Z,7.03
2022-10-29T14:16:09.245Z,6.80
2022-10-29T14:18:37.020Z,7.03
2022-10-29T14:21:04.947Z,7.40
2022-10-29T14:23:32.181Z,7.30
2022-10-29T14:26:03.943Z,7.17
2022-10-29T14:28:31.497Z,6.80
2022-10-29T14:31:11.853Z,6.47
2022-10-29T14:33:39.317Z,6.43
2022-10-29T14:36:05.758Z,7.50
2022-10-29T14:38:51.931Z,8.37
2022-10-29T14:41:19.034Z,5.90
2022-10-29T14:43:50.433Z,6.87
2022-10-29T14:46:16.768Z,6.83
2022-10-29T14:48:54.613Z,6.73
2022-10-29T14:51:21.933Z,7.13
2022-10-29T14:53:52.981Z,6.63
2022-10-29T14:56:20.055Z,6.40
2022-10-29T14:58:47.081Z,6.10
2022-10-29T15:01:15.621Z,5.87
2022-10-29T15:03:42.221Z,7.40
2022-10-29T15:06:16.400Z,7.70
2022-10-29T15:08:43.801Z,7.10
2022-10-29T15:11:28.994Z,6.73
2022-10-29T15:13:55.344Z,6.73
2022-10-29T15:16:21.713Z,6.70
2022-10-29T15:18:49.485Z,6.97
2022-10-29T15:21:32.812Z,7.23
2022-10-29T15:24:08.056Z,7.57
2022-10-29T15:26:35.415Z,7.03
2022-10-29T15:29:03.040Z,7.93
2022-10-29T15:31:33.106Z,7.33
2022-10-29T15:34:10.505Z,7.67
2022-10-29T15:36:53.067Z,6.90
2022-10-29T15:39:26.697Z,7.07
2022-10-29T15:41:54.821Z,8.00
2022-10-29T15:44:33.180Z,9.83
2022-10-29T15:47:00.691Z,7.10
2022-10-29T15:49:31.364Z,7.40
2022-10-29T15:52:00.583Z,8.43
2022-10-29T15:54:27.579Z,7.30
2022-10-29T15:56:53.922Z,7.77
2022-10-29T15:59:22.970Z,8.43
2022-10-29T16:01:49.518Z,7.33
2022-10-29T16:04:16.008Z,8.13
2022-10-29T16:06:42.382Z,7.93
2022-10-29T16:09:15.548Z,7.37
2022-10-29T16:11:41.923Z,6.97
2022-10-29T16:14:09.163Z,8.37
2022-10-29T16:16:35.576Z,7.47
2022-10-29T16:19:01.948Z,7.70
2022-10-29T16:21:28.378Z,7.70
2022-10-29T16:23:54.738Z,8.23
2022-10-29T16:26:22.351Z,9.20
2022-10-29T16:28:48.981Z,11.97
2022-10-29T16:31:23.168Z,9.77
2022-10-29T16:33:50.764Z,9.23
2022-10-29T16:36:17.552Z,8.97
2022-10-29T16:38:44.029Z,9.67
2022-10-29T16:41:14.829Z,9.27
2022-10-29T16:43:41.566Z,9.47
2022-10-29T16:46:08.204Z,10.37
2022-10-29T16:48:35.070Z,11.50
2022-10-29T16:51:01.657Z,11.40
2022-10-29T16:53:28.053Z,24.23
2022-10-29T16:55:54.414Z,15.60
2022-10-29T16:58:20.828Z,10.87
2022-10-29T17:00:47.226Z,11.20
2022-10-29T17:03:14.319Z,10.17
2022-10-29T17:05:42.178Z,10.83
2022-10-29T17:08:08.851Z,10.47
2022-10-29T17:10:35.433Z,11.90
2022-10-29T17:13:01.825Z,10.93
2022-10-29T17:15:28.166Z,11.23
2022-10-29T17:17:54.543Z,10.70
2022-10-29T17:20:20.876Z,11.00
2022-10-29T17:22:47.197Z,11.30
2022-10-29T17:25:13.591Z,11.07
2022-10-29T17:27:40.640Z,11.10
2022-10-29T17:30:07.562Z,12.10
2022-10-29T17:32:33.938Z,11.67
2022-10-29T17:35:00.340Z,11.60
2022-10-29T17:37:27.211Z,11.47
2022-10-29T17:39:53.731Z,12.20
2022-10-29T17:42:20.112Z,11.37
2022-10-29T17:44:46.432Z,11.70
2022-10-29T17:47:12.784Z,11.63
2022-10-29T17:49:39.328Z,12.27
2022-10-29T17:52:05.751Z,12.70
2022-10-29T17:54:33.975Z,11.57
2022-10-29T17:57:01.635Z,10.83
2022-10-29T17:59:28.064Z,12.87
2022-10-29T18:01:54.542Z,13.07
2022-10-29T18:04:21.082Z,12.30
2022-10-29T18:06:47.500Z,12.57
2022-10-29T18:09:17.129Z,12.40
2022-10-29T18:11:47.982Z,12.87
2022-10-29T18:14:14.355Z,12.93
2022-10-29T18:16:40.776Z,12.97
2022-10-29T18:19:07.154Z,12.33
2022-10-29T18:21:33.590Z,14.07
2022-10-29T18:23:59.976Z,13.70
2022-10-29T18:26:28.334Z,13.90
2022-10-29T18:28:55.285Z,14.53
2022-10-29T18:31:23.737Z,13.97
2022-10-29T18:33:50.152Z,12.77
2022-10-29T18:36:16.739Z,12.77
2022-10-29T18:38:43.159Z,13.50
2022-10-29T18:41:09.586Z,13.10
2022-10-29T18:43:36.006Z,13.63
2022-10-29T18:46:04.672Z,13.53
2022-10-29T18:48:31.489Z,13.97
2022-10-29T18:51:08.436Z,15.50
2022-10-29T18:53:35.565Z,14.30
2022-10-29T18:56:02.857Z,13.43
2022-10-29T18:58:29.293Z,13.90
2022-10-29T19:01:03.342Z,14.33
2022-10-29T19:03:29.849Z,14.60
2022-10-29T19:05:56.406Z,14.07
2022-10-29T19:08:22.791Z,15.57
2022-10-29T19:10:49.350Z,15.27
2022-10-29T19:13:15.731Z,14.57
2022-10-29T19:15:42.078Z,14.60
2022-10-29T19:18:08.399Z,13.87
2022-10-29T19:20:35.872Z,14.60
2022-10-29T19:23:02.593Z,15.07
2022-10-29T19:25:29.072Z,14.83
2022-10-29T19:27:55.437Z,16.43
2022-10-29T19:30:21.810Z,15.30
2022-10-29T19:32:48.271Z,15.30
2022-10-29T19:35:14.646Z,15.53
2022-10-29T19:37:41.087Z,15.43
2022-10-29T19:40:08.216Z,16.00
2022-10-29T19:42:34.561Z,14.70
2022-10-29T19:45:00.902Z,14.93
2022-10-29T19:47:27.209Z,17.00
2022-10-29T19:49:53.648Z,13.80
2022-10-29T19:52:20.057Z,15.33
2022-10-29T19:54:46.424Z,15.63
2022-10-29T19:57:12.789Z,15.20
2022-10-29T19:59:39.109Z,15.77
2022-10-29T20:02:05.581Z,15.20
2022-10-29T20:04:32.023Z,14.27
2022-10-29T20:06:58.376Z,16.17
2022-10-29T20:09:24.721Z,16.43
2022-10-29T20:11:51.035Z,15.93
2022-10-29T20:14:17.366Z,17.07
2022-10-29T20:16:43.700Z,15.63
2022-10-29T20:19:10.666Z,16.13
2022-10-29T20:21:36.990Z,16.40
2022-10-29T20:24:03.450Z,15.13
2022-10-29T20:26:31.096Z,16.53
2022-10-29T20:28:57.754Z,17.23
2022-10-29T20:31:27.809Z,17.13
2022-10-29T20:33:58.484Z,16.80
2022-10-29T20:36:25.459Z,17.27
2022-10-29T20:38:52.386Z,17.73
2022-10-29T20:41:19.219Z,18.00
2022-10-29T20:43:46.147Z,17.23
2022-10-29T20:46:13.609Z,17.97
2022-10-29T20:48:39.959Z,15.93
2022-10-29T20:51:06.431Z,17.17
2022-10-29T20:53:32.864Z,17.63
2022-10-29T20:55:59.235Z,17.07
2022-10-29T20:58:25.577Z,16.73
2022-10-29T21:00:51.974Z,15.97
2022-10-29T21:03:18.638Z,17.23
2022-10-29T21:05:45.029Z,26.33
2022-10-29T21:08:11.384Z,19.40
2022-10-29T21:10:37.905Z,17.13
2022-10-29T21:13:04.621Z,17.20
2022-10-29T21:15:31.315Z,16.80
2022-10-29T21:18:00.647Z,18.07
2022-10-29T21:20:26.983Z,18.43
2022-10-29T21:22:53.342Z,18.37
2022-10-29T21:25:19.728Z,16.57
2022-10-29T21:27:46.077Z,17.23
2022-10-29T21:30:12.826Z,18.73
2022-10-29T21:32:39.253Z,17.83
2022-10-29T21:35:05.787Z,18.93
2022-10-29T21:37:32.148Z,19.53
2022-10-29T21:40:00.286Z,17.70
2022-10-29T21:42:29.739Z,17.80
2022-10-29T21:44:56.183Z,18.37
2022-10-29T21:47:22.576Z,18.87
2022-10-29T21:49:51.850Z,17.77
2022-10-29T21:52:18.494Z,19.63
2022-10-29T21:54:44.853Z,18.57
2022-10-29T21:57:11.229Z,18.77
2022-10-29T21:59:37.579Z,19.27
2022-10-29T22:02:04.068Z,18.47
2022-10-29T22:04:30.521Z,19.00
2022-10-29T22:06:56.973Z,19.87
2022-10-29T22:09:23.386Z,20.60
2022-10-29T22:11:49.743Z,18.90
2022-10-29T22:14:16.617Z,17.93
2022-10-29T22:16:45.392Z,18.77
2022-10-29T22:19:14.729Z,18.73
2022-10-29T22:21:41.876Z,18.60
2022-10-29T22:24:09.088Z,18.60
2022-10-29T22:26:35.460Z,18.83
2022-10-29T22:29:01.861Z,19.73
2022-10-29T22:31:28.361Z,18.80
2022-10-29T22:33:54.866Z,19.80
2022-10-29T22:36:22.737Z,18.07
2022-10-29T22:38:55.980Z,19.03
2022-10-29T22:41:22.390Z,18.10
2022-10-29T22:43:48.747Z,19.03
2022-10-29T22:46:16.349Z,18.53
2022-10-29T22:48:45.789Z,18.27
2022-10-29T22:51:12.118Z,18.83
2022-10-29T22:53:38.498Z,20.57
2022-10-29T22:56:05.230Z,18.63
2022-10-29T22:58:31.766Z,18.63
2022-10-29T23:01:05.988Z,18.57
2022-10-29T23:03:32.897Z,18.80
2022-10-29T23:05:59.708Z,18.00
2022-10-29T23:08:26.284Z,25.97
2022-10-29T23:10:55.045Z,42.13
2022-10-29T23:13:21.450Z,29.43
2022-10-29T23:15:48.560Z,19.23
2022-10-29T23:18:15.015Z,17.67
2022-10-29T23:20:41.465Z,18.57
2022-10-29T23:23:07.836Z,18.37
2022-10-29T23:25:34.247Z,17.57
2022-10-29T23:28:00.653Z,18.17
2022-10-29T23:30:27.029Z,16.80
2022-10-29T23:32:53.365Z,17.30
2022-10-29T23:35:19.708Z,16.83
2022-10-29T23:37:46.061Z,14.87
2022-10-29T23:40:12.587Z,17.90
2022-10-29T23:42:38.937Z,16.70
2022-10-29T23:45:07.808Z,17.53
2022-10-29T23:47:34.350Z,15.50
2022-10-29T23:50:00.717Z,14.60
2022-10-29T23:52:27.065Z,16.20
2022-10-29T23:54:53.391Z,15.90
2022-10-29T23:57:19.724Z,17.77
2022-10-29T23:59:46.050Z,14.97
